Time;durP1;ratioP1;P1;durP2;ratioP2;P2;SDS_P1;SDS_P2;PMS_P1;PMS_P2;Temp;Humidity;BMP_temperature;BMP_pressure;BME280_temperature;BME280_humidity;BME280_pressure;Samples;Min_cycle;Max_cycle;Signal;HPM_P1;HPM_P2
2023/12/29 17:17:56;;;;;;;2.50;2.30;;;9.80;99.90;;;;;;5058366;27;20736;-67
2023/12/29 17:20:23;;;;;;;0.90;0.80;;;10.10;99.90;;;;;;5043645;28;20427;-67
2023/12/29 17:22:52;;;;;;;1.80;1.30;;;10.10;99.90;;;;;;5038207;28;20457;-67
2023/12/29 17:25:19;;;;;;;1.00;0.80;;;10.10;99.90;;;;;;5021348;28;20807;-67
2023/12/29 17:27:47;;;;;;;2.10;1.73;;;10.20;99.90;;;;;;5018715;28;20472;-67
2023/12/29 17:30:15;;;;;;;1.57;1.43;;;10.10;99.90;;;;;;5015656;28;20452;-68
2023/12/29 17:32:42;;;;;;;4.90;1.53;;;10.20;99.90;;;;;;5014983;28;20492;-67
2023/12/29 17:35:10;;;;;;;1.10;1.00;;;10.20;99.90;;;;;;5016376;28;20515;-68
2023/12/29 17:37:37;;;;;;;1.77;1.63;;;10.30;99.90;;;;;;5013227;28;20480;-67
2023/12/29 17:40:05;;;;;;;1.60;1.50;;;10.40;99.90;;;;;;5014442;28;20434;-67
2023/12/29 17:42:31;;;;;;;1.50;1.10;;;10.50;99.90;;;;;;5008530;28;21045;-67
2023/12/29 17:44:58;;;;;;;1.13;1.03;;;10.40;99.90;;;;;;5012887;28;20535;-67
2023/12/29 17:47:27;;;;;;;2.37;1.80;;;10.50;99.90;;;;;;5014772;28;20963;-67
2023/12/29 17:49:54;;;;;;;3.10;1.27;;;10.50;99.90;;;;;;5015330;28;20460;-67
2023/12/29 17:52:22;;;;;;;2.03;1.50;;;10.60;99.90;;;;;;5012063;28;20492;-67
2023/12/29 17:54:49;;;;;;;3.43;1.10;;;10.60;99.90;;;;;;5014800;28;20490;-67
2023/12/29 17:57:16;;;;;;;1.13;1.03;;;10.60;99.90;;;;;;5010390;28;20526;-67
2023/12/29 17:59:43;;;;;;;1.03;0.93;;;10.60;99.90;;;;;;5008417;28;20487;-67
2023/12/29 18:02:26;;;;;;;1.40;1.00;;;10.60;99.90;;;;;;5017100;28;20457;-67
2023/12/29 18:04:53;;;;;;;1.20;1.03;;;10.70;99.90;;;;;;5013586;28;20484;-68
2023/12/29 18:07:20;;;;;;;2.43;1.20;;;10.60;99.90;;;;;;5009259;28;20563;-67
2023/12/29 18:09:48;;;;;;;1.30;1.20;;;10.70;99.90;;;;;;5010313;28;20714;-67
2023/12/29 18:12:15;;;;;;;2.00;1.67;;;10.70;99.90;;;;;;5018322;28;20465;-67
2023/12/29 18:14:43;;;;;;;1.30;1.20;;;10.70;99.90;;;;;;5015060;28;20484;-67
2023/12/29 18:17:10;;;;;;;1.20;1.00;;;10.60;99.90;;;;;;5023017;28;20546;-67
2023/12/29 18:19:38;;;;;;;2.33;1.50;;;10.70;99.90;;;;;;5023369;28;20599;-67
2023/12/29 18:22:05;;;;;;;1.20;1.00;;;10.70;99.90;;;;;;5023826;28;20470;-67
2023/12/29 18:24:31;;;;;;;1.33;1.23;;;10.70;99.90;;;;;;5012045;28;20491;-67
2023/12/29 18:27:00;;;;;;;1.43;1.17;;;10.70;99.90;;;;;;5018042;28;20488;-68
2023/12/29 18:29:27;;;;;;;1.97;1.50;;;10.80;99.90;;;;;;5009536;28;20465;-68
2023/12/29 18:31:53;;;;;;;1.00;0.90;;;10.80;99.90;;;;;;5010030;28;20472;-68
2023/12/29 18:34:20;;;;;;;1.10;1.00;;;10.80;99.90;;;;;;5008283;28;20465;-68
2023/12/29 18:36:47;;;;;;;1.10;0.87;;;10.80;99.90;;;;;;5008931;28;20446;-67
2023/12/29 18:39:15;;;;;;;1.00;0.90;;;10.80;99.90;;;;;;5007658;28;20469;-66
2023/12/29 18:41:42;;;;;;;2.33;1.10;;;10.90;99.90;;;;;;5007957;28;20481;-68
2023/12/29 18:44:10;;;;;;;2.83;1.13;;;10.90;99.90;;;;;;5005827;28;20467;-67
2023/12/29 18:46:37;;;;;;;1.50;1.07;;;10.90;99.90;;;;;;5008375;28;20466;-69
2023/12/29 18:49:06;;;;;;;2.43;1.30;;;10.90;99.90;;;;;;5005912;28;20490;-67
2023/12/29 18:51:32;;;;;;;3.00;1.77;;;10.90;99.90;;;;;;5006745;28;20528;-67
2023/12/29 18:53:59;;;;;;;1.83;1.67;;;10.90;99.90;;;;;;5001299;28;20485;-68
2023/12/29 18:56:26;;;;;;;8.07;1.50;;;11.00;99.90;;;;;;5005060;28;20939;-67
2023/12/29 18:58:53;;;;;;;7.63;1.80;;;10.90;99.90;;;;;;5006075;28;20457;-68
2023/12/29 19:01:21;;;;;;;1.60;1.00;;;10.90;99.90;;;;;;5003770;28;20913;-68
2023/12/29 19:03:47;;;;;;;2.63;2.20;;;11.00;99.90;;;;;;5004709;28;20497;-68
2023/12/29 19:06:24;;;;;;;7.33;1.90;;;11.00;99.90;;;;;;5000886;28;20505;-68
2023/12/29 19:08:50;;;;;;;13.60;2.30;;;11.00;99.90;;;;;;5007916;28;20461;-68
2023/12/29 19:11:20;;;;;;;1.40;1.30;;;10.90;99.90;;;;;;5004099;28;20428;-68
2023/12/29 19:13:46;;;;;;;2.30;1.90;;;10.90;99.90;;;;;;5001595;28;20489;-67
2023/12/29 19:16:21;;;;;;;1.60;1.50;;;10.90;99.90;;;;;;4994179;28;20451;-66
2023/12/29 19:18:48;;;;;;;1.50;1.23;;;10.90;99.90;;;;;;5001599;28;20920;-70
2023/12/29 19:21:15;;;;;;;3.80;1.40;;;11.00;99.90;;;;;;5003661;28;20480;-67
2023/12/29 19:23:41;;;;;;;1.80;1.20;;;11.00;99.90;;;;;;5002056;28;20467;-68
2023/12/29 19:26:17;;;;;;;1.87;1.07;;;11.00;99.90;;;;;;5004854;28;20453;-67
2023/12/29 19:28:43;;;;;;;1.70;1.40;;;11.00;99.90;;;;;;5002038;28;20453;-69
2023/12/29 19:31:10;;;;;;;3.93;1.77;;;11.00;99.90;;;;;;5007185;28;20469;-67
2023/12/29 19:33:39;;;;;;;2.80;1.63;;;11.00;99.90;;;;;;5006563;28;20461;-68
2023/12/29 19:36:09;;;;;;;1.80;1.30;;;11.00;99.90;;;;;;5005902;28;20472;-67
2023/12/29 19:38:40;;;;;;;5.27;2.47;;;10.90;99.90;;;;;;5003995;28;21166;-67
2023/12/29 19:41:06;;;;;;;1.30;1.20;;;11.00;99.90;;;;;;5002332;28;21214;-68
2023/12/29 19:43:33;;;;;;;1.20;1.10;;;11.00;99.90;;;;;;5004060;28;20493;-67
2023/12/29 19:46:02;;;;;;;1.90;1.70;;;11.00;99.90;;;;;;5002269;28;20448;-67
2023/12/29 19:48:29;;;;;;;1.37;1.27;;;10.90;99.90;;;;;;5004846;28;20539;-67
2023/12/29 19:50:58;;;;;;;1.87;1.13;;;10.80;99.90;;;;;;5002702;28;20442;-68
2023/12/29 19:53:25;;;;;;;1.10;0.97;;;10.10;99.90;;;;;;5005686;28;20588;-68
2023/12/29 19:55:52;;;;;;;2.00;1.10;;;9.10;99.90;;;;;;5007344;28;20456;-68
2023/12/29 19:58:19;;;;;;;1.20;1.00;;;8.60;99.90;;;;;;5004917;28;20452;-68
2023/12/29 20:00:46;;;;;;;1.80;1.40;;;8.40;99.90;;;;;;4998183;28;20476;-67
2023/12/29 20:03:12;;;;;;;1.43;0.90;;;8.30;99.90;;;;;;5006074;28;20546;-68
2023/12/29 20:05:39;;;;;;;1.20;0.90;;;8.30;99.90;;;;;;4982742;28;20470;-68
2023/12/29 20:08:08;;;;;;;3.93;1.30;;;8.20;99.90;;;;;;5005477;28;20516;-67
2023/12/29 20:10:34;;;;;;;0.90;0.70;;;8.30;99.90;;;;;;5004006;28;20453;-67
2023/12/29 20:13:01;;;;;;;1.50;0.70;;;8.30;99.90;;;;;;5006732;28;20461;-67
2023/12/29 20:15:28;;;;;;;0.90;0.70;;;8.30;99.90;;;;;;5008945;28;20974;-67
2023/12/29 20:17:55;;;;;;;1.03;0.77;;;8.40;99.90;;;;;;5005968;28;20452;-67
2023/12/29 20:20:22;;;;;;;1.37;0.90;;;8.40;99.90;;;;;;5001804;28;20751;-67
2023/12/29 20:22:49;;;;;;;2.90;1.00;;;8.40;99.90;;;;;;5005870;28;20427;-67
2023/12/29 20:25:21;;;;;;;1.73;1.07;;;8.50;99.90;;;;;;5003380;28;20503;-67
2023/12/29 20:27:48;;;;;;;2.80;0.97;;;8.50;99.90;;;;;;5001577;28;21084;-67
2023/12/29 20:30:16;;;;;;;1.30;0.97;;;8.50;99.90;;;;;;5004065;28;20981;-67
2023/12/29 20:32:43;;;;;;;2.17;1.27;;;8.50;99.90;;;;;;5002313;28;20460;-67
2023/12/29 20:35:10;;;;;;;1.00;0.90;;;8.40;99.90;;;;;;5009728;28;20465;-67
2023/12/29 20:37:36;;;;;;;1.30;1.20;;;8.40;99.90;;;;;;5002249;28;20431;-67
2023/12/29 20:40:04;;;;;;;2.00;1.10;;;8.40;99.90;;;;;;5007118;28;20817;-67
2023/12/29 20:42:32;;;;;;;1.50;1.00;;;8.50;99.90;;;;;;5005096;28;20469;-68
2023/12/29 20:44:59;;;;;;;5.20;1.10;;;8.50;99.90;;;;;;5000828;28;20553;-68
2023/12/29 20:47:26;;;;;;;1.77;1.40;;;8.50;99.90;;;;;;5006468;28;20517;-68
2023/12/29 20:49:53;;;;;;;3.57;2.90;;;8.50;99.90;;;;;;5004514;28;20424;-68
2023/12/29 20:52:20;;;;;;;1.00;0.90;;;8.60;99.90;;;;;;5005068;28;20468;-68
2023/12/29 20:54:46;;;;;;;4.80;1.20;;;8.60;99.90;;;;;;5004085;28;20711;-68
2023/12/29 20:57:13;;;;;;;3.10;1.60;;;8.70;99.90;;;;;;5006858;28;20421;-67
2023/12/29 20:59:41;;;;;;;2.47;1.50;;;8.70;99.90;;;;;;5002624;28;20486;-67
2023/12/29 21:02:10;;;;;;;5.40;1.43;;;8.80;99.90;;;;;;5003375;28;20461;-67
2023/12/29 21:04:37;;;;;;;1.40;1.20;;;8.80;99.90;;;;;;5005051;28;20523;-67
2023/12/29 21:07:04;;;;;;;1.87;1.77;;;8.80;99.90;;;;;;5003687;28;20481;-68
2023/12/29 21:09:31;;;;;;;2.70;1.80;;;8.90;99.90;;;;;;5007266;28;20788;-68
2023/12/29 21:11:57;;;;;;;13.67;1.77;;;8.90;99.90;;;;;;4998982;28;20466;-67
2023/12/29 21:14:24;;;;;;;1.50;1.40;;;8.90;99.90;;;;;;5006386;28;20491;-67
2023/12/29 21:16:52;;;;;;;2.93;1.73;;;9.00;99.90;;;;;;5002868;28;20799;-68
2023/12/29 21:19:19;;;;;;;5.97;2.10;;;9.00;99.90;;;;;;5002569;28;20449;-68
2023/12/29 21:21:46;;;;;;;1.63;1.20;;;9.00;99.90;;;;;;5003397;28;20892;-68
2023/12/29 21:24:13;;;;;;;3.27;2.53;;;8.90;99.90;;;;;;5004601;28;20492;-68
2023/12/29 21:26:41;;;;;;;8.20;1.60;;;9.00;99.90;;;;;;5005601;28;20520;-69
2023/12/29 21:29:07;;;;;;;1.73;1.63;;;9.00;99.90;;;;;;5000722;28;20466;-68
2023/12/29 21:31:34;;;;;;;3.63;2.10;;;9.10;99.90;;;;;;5004846;28;20453;-68
2023/12/29 21:34:03;;;;;;;1.77;1.67;;;9.20;99.90;;;;;;5006113;28;20476;-67
2023/12/29 21:36:30;;;;;;;2.67;1.90;;;9.20;99.90;;;;;;5004615;28;20453;-68
2023/12/29 21:38:58;;;;;;;8.53;3.20;;;9.30;99.90;;;;;;5007649;28;20524;-68
2023/12/29 21:41:27;;;;;;;2.23;2.13;;;9.30;99.90;;;;;;5004169;28;20476;-67
2023/12/29 21:43:54;;;;;;;4.67;3.03;;;9.30;99.90;;;;;;5006030;28;20473;-66
2023/12/29 21:46:21;;;;;;;3.13;1.63;;;9.40;99.90;;;;;;5006155;28;20540;-67
2023/12/29 21:48:48;;;;;;;3.30;1.70;;;9.40;99.90;;;;;;5004884;28;20934;-68
2023/12/29 21:51:16;;;;;;;2.37;1.20;;;9.40;99.90;;;;;;5005066;28;20938;-67
2023/12/29 21:53:44;;;;;;;3.37;1.30;;;9.50;99.90;;;;;;5007837;28;20579;-68
2023/12/29 21:56:11;;;;;;;1.40;1.20;;;9.60;99.90;;;;;;5000222;28;20459;-68
2023/12/29 21:58:37;;;;;;;10.27;2.37;;;9.60;99.90;;;;;;5007404;28;20424;-68
2023/12/29 22:01:33;;;;;;;4.80;2.00;;;9.70;99.90;;;;;;5003864;28;21006;-68
2023/12/29 22:04:01;;;;;;;2.47;1.50;;;9.80;99.90;;;;;;5002637;28;20528;-66
2023/12/29 22:06:30;;;;;;;1.90;1.57;;;9.80;99.90;;;;;;5009193;28;20467;-67
2023/12/29 22:08:57;;;;;;;7.90;1.10;;;9.80;99.90;;;;;;5008265;28;20488;-68
2023/12/29 22:11:24;;;;;;;8.23;3.80;;;9.80;99.90;;;;;;5010562;28;20492;-68
2023/12/29 22:13:51;;;;;;;7.50;2.03;;;9.90;99.90;;;;;;5008530;28;20489;-66
2023/12/29 22:16:19;;;;;;;1.30;1.10;;;9.90;99.90;;;;;;5009038;28;20464;-68
2023/12/29 22:18:46;;;;;;;2.83;1.27;;;10.00;99.90;;;;;;5002863;28;20923;-68
2023/12/29 22:21:15;;;;;;;1.40;1.17;;;10.00;99.90;;;;;;5010464;28;20453;-68
2023/12/29 22:23:45;;;;;;;3.10;1.40;;;10.00;99.90;;;;;;5008247;28;20476;-68
2023/12/29 22:26:12;;;;;;;2.17;1.87;;;10.00;99.90;;;;;;5007585;28;20459;-68
2023/12/29 22:28:39;;;;;;;4.83;3.17;;;10.00;99.90;;;;;;5009481;28;20480;-67
2023/12/29 22:31:06;;;;;;;1.70;1.50;;;10.00;99.90;;;;;;5008572;28;20511;-68
2023/12/29 22:33:33;;;;;;;3.50;1.97;;;10.00;99.90;;;;;;5007031;28;20489;-67
2023/12/29 22:35:59;;;;;;;4.10;1.83;;;10.00;99.90;;;;;;5006486;28;20432;-67
2023/12/29 22:38:26;;;;;;;3.20;2.47;;;10.10;99.90;;;;;;5011411;28;20528;-66
2023/12/29 22:40:54;;;;;;;16.53;2.63;;;10.10;99.90;;;;;;4998625;28;20478;-67
2023/12/29 22:43:22;;;;;;;5.97;1.70;;;10.00;99.90;;;;;;5010185;28;20481;-67
2023/12/29 22:45:48;;;;;;;2.70;1.70;;;10.10;99.90;;;;;;5008577;28;20464;-67
2023/12/29 22:48:15;;;;;;;5.90;1.90;;;10.10;99.90;;;;;;5010741;28;20485;-67
2023/12/29 22:50:42;;;;;;;1.27;1.17;;;10.10;99.90;;;;;;5003476;28;20516;-68
2023/12/29 22:53:09;;;;;;;2.47;2.27;;;10.10;99.90;;;;;;5011213;28;20540;-69
2023/12/29 22:55:36;;;;;;;7.80;2.27;;;10.10;99.90;;;;;;5008323;28;20464;-67
2023/12/29 22:58:04;;;;;;;2.40;2.07;;;10.20;99.90;;;;;;5016089;28;20457;-67
2023/12/29 23:00:35;;;;;;;4.53;1.13;;;10.20;99.90;;;;;;5012085;28;20488;-66
2023/12/29 23:03:04;;;;;;;2.60;2.07;;;10.20;99.90;;;;;;5010015;28;20484;-67
2023/12/29 23:05:30;;;;;;;6.60;1.80;;;10.10;99.90;;;;;;5009525;28;20461;-69
2023/12/29 23:07:57;;;;;;;3.43;1.37;;;10.10;99.90;;;;;;5010983;28;20488;-68
2023/12/29 23:10:24;;;;;;;6.30;3.33;;;10.00;99.90;;;;;;5010101;28;20456;-68
2023/12/29 23:12:51;;;;;;;4.20;1.63;;;10.00;99.90;;;;;;5009723;28;20439;-67
2023/12/29 23:15:19;;;;;;;3.87;2.40;;;10.00;99.90;;;;;;5005021;28;20561;-68
2023/12/29 23:17:46;;;;;;;1.77;1.27;;;10.00;99.90;;;;;;5007771;28;20506;-66
2023/12/29 23:20:13;;;;;;;5.63;1.57;;;10.00;99.90;;;;;;5008581;28;20452;-68
2023/12/29 23:22:41;;;;;;;1.60;1.40;;;9.90;99.90;;;;;;5010235;28;20780;-67
2023/12/29 23:25:08;;;;;;;4.40;1.87;;;9.90;99.90;;;;;;5011138;28;20496;-68
2023/12/29 23:27:35;;;;;;;3.00;2.00;;;9.90;99.90;;;;;;5007807;28;21000;-68
2023/12/29 23:30:01;;;;;;;1.50;1.10;;;9.90;99.90;;;;;;5009454;28;20465;-67
2023/12/29 23:32:29;;;;;;;4.80;1.70;;;9.90;99.90;;;;;;5006229;28;20466;-68
2023/12/29 23:34:56;;;;;;;10.03;1.97;;;9.90;99.90;;;;;;5004007;28;20473;-68
2023/12/29 23:37:23;;;;;;;1.47;1.13;;;9.90;99.90;;;;;;5010587;28;20548;-68
2023/12/29 23:39:50;;;;;;;12.43;2.43;;;10.00;99.90;;;;;;5006916;28;20518;-67
2023/12/29 23:42:19;;;;;;;7.00;1.50;;;10.10;99.90;;;;;;5009179;28;20449;-67
2023/12/29 23:44:46;;;;;;;4.57;1.90;;;10.10;99.90;;;;;;5008311;28;20713;-68
2023/12/29 23:47:12;;;;;;;9.50;2.40;;;10.00;99.90;;;;;;5006113;28;20896;-66
2023/12/29 23:49:41;;;;;;;3.53;1.63;;;10.00;99.90;;;;;;5004973;28;20470;-67
2023/12/29 23:52:08;;;;;;;1.90;1.40;;;10.10;99.90;;;;;;5005714;28;20431;-68
2023/12/29 23:54:35;;;;;;;2.20;1.50;;;10.10;99.90;;;;;;5004287;28;20486;-67
2023/12/29 23:57:02;;;;;;;5.13;2.30;;;10.10;99.90;;;;;;5004898;28;20465;-67
2023/12/29 23:59:28;;;;;;;2.37;2.17;;;10.10;99.90;;;;;;5005989;28;20821;-67
